メインページ
METAR-TAF:

METAR-TAF

空港 :

チュニス・カルタゴ国際空港

チュニス, チュニジア

緯度: 36-50N, 経度: 010-14E, 海抜: 3m

現時点の気象観測

当レポートは1時間11分前の06:00(UTC)に作成
東/南東の風 3kt、から南/南西の間で変化する
気温 12°C
湿度 71%
気圧 1015 hPa
視程10km以上
高度2600ftの雲は散在している

METAR: DTTA 130600Z 12003KT 100V200 9999 SCT026 12/07 Q1015 NOSIG

時間: 08:11 (07:11 UTC)

予報

当レポートは2時間11分前の05:00(UTC)に作成
予報は13日の 06時(UTC)から 14日の 06時(UTC)まで有効
南/南西の風 6kt
視程10km以上
高度2600ftの雲は散在している

TAF: DTTA 130500Z 1306/1406 20006KT 9999 SCT026

4,000以上の空港の気象観測と天気予報(METAR報とTAF報)

利用可能な観測所は地図上に黄色い丸と赤い丸で示す。

丸の上にカーソルを重ねると観測所名を参照できる。

次にクリックすると気象観測と天気予報を参照できる。

マップの切り替え:黒色「×」印の緑ボタンをクリックして拡大、「-」印の緑ボタンをクリックして縮小、緑色の三角印をクリックして隣りの地図に切り替え


METAR-TAF: